Amarillo, Texas
Current Conditions -  °F | °C
As of 6:53 AM on Wednesday 22 Oct 2014 (Local Time) from KAMA Reporting Station
Overcast Overcast  
Wind Chill: 60°   Ceiling: 8000
Heat Index: 60°   Visibility: 10mi
Dew Point: 52°   Wind: 10mph
Humidity: 75%   Direction: 170°S
Pressure: 30.1"   Gusts: 18mph
Location:  35.21°N, 101.83°W
Report Text: KAMA 221153Z 17009G16KT 10SM OVC080 16/11 A3010 RMK AO2 SLP155 60000 T01560111 10161 20150 53005
Loading
Personal Weather Stations






























Interactive Weather Map
Tropical Storm Tracking
New forecast layout! Learn more

10-Day Weather Forecast

Advertisements
Track Severe Weather on mobile